バクー の空港の天気 - METARとTAF

ヘイダル・アリエフ国際空港(バクー) ( UBBB / BAK ) - アゼルバイジャン バクー
飛行場実況気象(Metar)
観測時間05/26 03:00 AZT (05/25 23:00 UTC)
風向・風速南 4m/s
視程10km以上
天気現象
なし
気温16℃
湿度77%
気圧1012hPa
METARUBBB 252300Z 19008KT CAVOK 16/12 Q1012 R88/D NOSIG
過去の天気等 Google飛行場航空写真 Wunderground天気予報

過去48時間のMETAR

飛行場予報(TAF)
発表時間: 5/26 03:14 AZT (5/25 23:14 UTC)
予報対象時間: 26日4時 AZT ~ 27日4時 AZT
風向・風速南南西 5m/s
視程10km以上
なし
26日4時 AZT ~ 26日6時 AZT に一時的に
風向・風速不定 3m/s
26日6時 AZT ~ 26日8時 AZT に徐々に
風向・風速北北西 9m/s 瞬間風速 14m/s
26日7時 AZT ~ 26日13時 AZT に一時的に
全天の4割程度の雲 雲底高度 370m
26日14時 AZT ~ 26日16時 AZT に徐々に
風向・風速北 5m/s
TAF UBBB 252314Z 2600/2624 20010KT CAVOK TX22/2610Z TN14/2602Z
TEMPO 2600/2602 VRB06KT
BECMG 2602/2604 33018G28KT
TEMPO 2603/2609 SCT012
BECMG 2610/2612 35010KT